Time;durP1;ratioP1;P1;durP2;ratioP2;P2;SDS_P1;SDS_P2;PMS_P1;PMS_P2;Temp;Humidity;BMP_temperature;BMP_pressure;BME280_temperature;BME280_humidity;BME280_pressure;Samples;Min_cycle;Max_cycle;Signal;HPM_P1;HPM_P2
2024/01/03 00:02:24;;;;;;;1999.90;999.90;;;8.10;88.00;;;;;;5026440;28;20029;-82
2024/01/03 00:04:50;;;;;;;1999.90;999.90;;;8.20;87.80;;;;;;5029124;28;20081;-84
2024/01/03 00:07:16;;;;;;;1999.90;999.90;;;8.20;87.40;;;;;;5028688;28;20061;-83
2024/01/03 00:09:41;;;;;;;1999.90;999.90;;;8.20;87.20;;;;;;5037520;28;20026;-83
2024/01/03 00:12:10;;;;;;;1999.90;999.90;;;8.10;87.50;;;;;;5033605;28;20439;-82
2024/01/03 00:14:36;;;;;;;1999.90;999.90;;;8.00;88.20;;;;;;5034013;28;20018;-82
2024/01/03 00:17:04;;;;;;;1999.90;999.90;;;7.80;88.60;;;;;;5035602;28;20534;-81
2024/01/03 00:19:35;;;;;;;1999.90;999.90;;;7.80;88.40;;;;;;5027429;28;20025;-83
2024/01/03 00:22:01;;;;;;;1999.90;999.90;;;7.70;88.70;;;;;;5028955;28;20033;-83
2024/01/03 00:24:29;;;;;;;1999.90;999.90;;;7.70;88.40;;;;;;5025834;28;20041;-79
2024/01/03 00:26:55;;;;;;;1999.90;999.90;;;7.80;88.40;;;;;;5008274;28;20083;-85
2024/01/03 00:29:23;;;;;;;1999.90;999.90;;;7.80;88.30;;;;;;5034090;28;20082;-80
2024/01/03 00:31:49;;;;;;;1999.90;999.90;;;7.80;88.30;;;;;;5027674;28;20033;-84
2024/01/03 00:34:40;;;;;;;1999.90;999.90;;;7.80;88.60;;;;;;5029353;28;20038;-83
2024/01/03 00:37:25;;;;;;;1999.90;999.90;;;7.80;88.40;;;;;;5031511;28;20547;-81
2024/01/03 00:39:52;;;;;;;1999.90;999.90;;;7.70;88.70;;;;;;5027920;28;20102;-83
2024/01/03 00:42:18;;;;;;;1999.90;999.90;;;7.70;89.10;;;;;;5025378;28;20041;-83
2024/01/03 00:44:45;;;;;;;1999.90;999.90;;;7.80;89.10;;;;;;5030598;28;20040;-80
2024/01/03 00:47:12;;;;;;;1999.90;999.90;;;7.70;90.20;;;;;;5031877;28;20116;-79
2024/01/03 00:49:38;;;;;;;1999.90;999.90;;;7.60;91.30;;;;;;5027964;28;20036;-79
2024/01/03 00:52:05;;;;;;;1999.90;999.90;;;7.40;91.90;;;;;;5031795;28;20045;-79
2024/01/03 00:54:31;;;;;;;1999.90;999.90;;;7.30;92.20;;;;;;5030674;28;20061;-79
2024/01/03 00:56:59;;;;;;;1999.90;999.90;;;7.40;92.30;;;;;;5029834;28;20063;-80
2024/01/03 00:59:25;;;;;;;1999.90;999.90;;;7.40;93.00;;;;;;5025893;28;20033;-79
2024/01/03 01:01:52;;;;;;;1999.90;999.90;;;7.30;92.10;;;;;;5023417;28;20052;-79
2024/01/03 01:04:20;;;;;;;1999.90;999.90;;;7.40;93.00;;;;;;5025304;28;20100;-79
2024/01/03 01:06:45;;;;;;;1999.90;999.90;;;7.40;93.60;;;;;;5028526;28;20037;-79
2024/01/03 01:09:11;;;;;;;1999.90;999.90;;;7.30;94.60;;;;;;5028246;28;20030;-79
2024/01/03 01:11:39;;;;;;;1999.90;999.90;;;7.30;94.90;;;;;;5029863;28;20033;-78
2024/01/03 01:14:05;;;;;;;1999.90;999.90;;;7.30;95.10;;;;;;5026430;28;20036;-79
2024/01/03 01:16:31;;;;;;;1999.90;999.90;;;7.30;95.70;;;;;;5022450;28;20030;-79
2024/01/03 01:18:57;;;;;;;1999.90;999.90;;;7.10;96.40;;;;;;5026792;28;20579;-79
2024/01/03 01:21:23;;;;;;;1999.90;999.90;;;7.20;96.40;;;;;;5024600;28;20037;-78
2024/01/03 01:23:50;;;;;;;1999.90;999.90;;;7.10;96.60;;;;;;5024782;28;20095;-80
2024/01/03 01:26:17;;;;;;;1999.90;999.90;;;7.00;97.30;;;;;;5029066;28;20060;-78
2024/01/03 01:28:43;;;;;;;1999.90;999.90;;;7.00;97.30;;;;;;5010723;28;20030;-79
2024/01/03 01:31:09;;;;;;;1999.90;999.90;;;7.10;96.80;;;;;;5028192;28;20032;-79
2024/01/03 01:33:34;;;;;;;1999.90;999.90;;;7.10;96.90;;;;;;5025431;28;20029;-81
2024/01/03 01:36:00;;;;;;;1999.90;999.90;;;7.00;97.10;;;;;;5029864;28;20718;-79
2024/01/03 01:38:25;;;;;;;1999.90;999.90;;;7.10;96.80;;;;;;5029532;28;20376;-79
2024/01/03 01:40:51;;;;;;;1999.90;999.90;;;7.10;96.40;;;;;;5029433;28;20033;-80
2024/01/03 01:43:17;;;;;;;1999.90;999.90;;;7.30;96.00;;;;;;5029683;28;20041;-80
2024/01/03 01:45:43;;;;;;;1999.90;999.90;;;7.10;95.90;;;;;;5025710;28;20041;-79
2024/01/03 01:48:09;;;;;;;1999.90;999.90;;;7.10;96.30;;;;;;5020215;28;20079;-80
2024/01/03 01:50:38;;;;;;;1999.90;999.90;;;7.10;95.80;;;;;;5029186;28;20037;-80
2024/01/03 01:53:05;;;;;;;1999.90;999.90;;;7.10;96.30;;;;;;5025167;28;20037;-79
2024/01/03 01:55:30;;;;;;;1999.90;999.90;;;7.20;96.40;;;;;;5027686;28;20038;-78
2024/01/03 01:57:56;;;;;;;1999.90;999.90;;;7.10;96.80;;;;;;5028392;28;20025;-80
2024/01/03 02:00:24;;;;;;;1999.90;999.90;;;7.00;96.50;;;;;;5029316;28;20052;-78
2024/01/03 02:02:50;;;;;;;1999.90;999.90;;;7.10;96.00;;;;;;5023490;28;20095;-81
2024/01/03 02:05:17;;;;;;;1999.90;999.90;;;7.00;97.00;;;;;;5021899;28;20049;-79
2024/01/03 02:07:43;;;;;;;1999.90;999.90;;;7.00;96.50;;;;;;5024428;28;20599;-78
2024/01/03 02:10:09;;;;;;;1999.90;999.90;;;6.80;97.10;;;;;;5028366;28;20112;-78
2024/01/03 02:12:35;;;;;;;1999.90;999.90;;;7.00;96.70;;;;;;5033098;28;20098;-79
2024/01/03 02:15:01;;;;;;;1999.90;999.90;;;7.10;96.70;;;;;;5029341;28;20029;-81
2024/01/03 02:17:27;;;;;;;1999.90;999.90;;;6.90;96.70;;;;;;5029120;28;20032;-78
2024/01/03 02:20:00;;;;;;;1999.90;999.90;;;7.00;96.30;;;;;;5027246;28;20995;-80
2024/01/03 02:22:29;;;;;;;1999.90;999.90;;;7.00;96.70;;;;;;5032233;28;20033;-81
2024/01/03 02:24:54;;;;;;;1999.90;999.90;;;6.90;97.00;;;;;;5028985;28;20041;-80
2024/01/03 02:27:20;;;;;;;1999.90;999.90;;;6.90;96.80;;;;;;5030740;28;20044;-81
2024/01/03 02:29:46;;;;;;;1999.90;999.90;;;6.90;97.20;;;;;;5025351;28;20507;-79
2024/01/03 02:32:12;;;;;;;1999.90;999.90;;;6.80;96.50;;;;;;5027313;28;20029;-80
2024/01/03 02:34:41;;;;;;;1999.90;999.90;;;6.80;96.70;;;;;;5023311;28;20453;-79
2024/01/03 02:37:12;;;;;;;1999.90;999.90;;;6.90;96.50;;;;;;5031959;28;20522;-76
2024/01/03 02:39:37;;;;;;;1999.90;999.90;;;6.90;96.80;;;;;;5025702;28;20120;-78
2024/01/03 02:42:03;;;;;;;1999.90;999.90;;;6.90;96.90;;;;;;5028502;28;20466;-77
2024/01/03 02:44:29;;;;;;;1999.90;999.90;;;6.90;96.60;;;;;;5023358;28;20748;-80
2024/01/03 02:46:55;;;;;;;1999.90;999.90;;;6.80;96.50;;;;;;5007939;28;20047;-79
2024/01/03 02:49:21;;;;;;;1999.90;999.90;;;6.80;97.10;;;;;;5022883;28;20527;-81
2024/01/03 02:51:46;;;;;;;1999.90;999.90;;;6.90;96.20;;;;;;5028053;28;20056;-82
2024/01/03 02:54:14;;;;;;;1999.90;999.90;;;6.80;96.50;;;;;;5028059;28;20392;-79
2024/01/03 02:56:41;;;;;;;1999.90;999.90;;;6.70;96.10;;;;;;5027444;28;20037;-80
2024/01/03 02:59:07;;;;;;;1999.90;999.90;;;6.80;96.40;;;;;;5025236;28;20033;-77
2024/01/03 03:01:35;;;;;;;1999.90;999.90;;;6.90;96.60;;;;;;5024313;28;20034;-80
2024/01/03 03:04:02;;;;;;;1999.90;999.90;;;6.80;96.20;;;;;;5024910;28;20527;-77
2024/01/03 03:06:27;;;;;;;1999.90;999.90;;;7.00;95.70;;;;;;5021677;28;20135;-78
2024/01/03 03:08:53;;;;;;;1999.90;999.90;;;7.10;95.10;;;;;;5023961;28;20429;-78
2024/01/03 03:11:20;;;;;;;1999.90;999.90;;;7.10;94.80;;;;;;5025132;28;20048;-82
2024/01/03 03:13:45;;;;;;;1999.90;999.90;;;7.30;93.80;;;;;;5025655;28;20033;-81
2024/01/03 03:16:13;;;;;;;1999.90;999.90;;;7.30;93.50;;;;;;5022961;28;20546;-78
2024/01/03 03:18:38;;;;;;;1999.90;999.90;;;7.30;93.10;;;;;;5029273;28;20029;-80
2024/01/03 03:21:04;;;;;;;1999.90;999.90;;;7.30;92.80;;;;;;5025664;28;20033;-79
2024/01/03 03:23:30;;;;;;;1999.90;999.90;;;7.20;92.70;;;;;;5027758;28;20132;-79
2024/01/03 03:26:00;;;;;;;1999.90;999.90;;;7.20;92.70;;;;;;5027653;28;20025;-79
2024/01/03 03:28:26;;;;;;;1999.90;999.90;;;7.20;92.60;;;;;;5025769;28;20670;-81
2024/01/03 03:30:52;;;;;;;1999.90;999.90;;;7.20;92.40;;;;;;5024780;28;20029;-78
2024/01/03 03:33:21;;;;;;;1999.90;999.90;;;7.20;92.50;;;;;;5027995;28;20040;-79
2024/01/03 03:35:47;;;;;;;1999.90;999.90;;;7.30;92.10;;;;;;5023110;28;20065;-79
2024/01/03 03:38:13;;;;;;;1999.90;999.90;;;7.30;92.10;;;;;;5023235;28;20068;-80
2024/01/03 03:40:39;;;;;;;1999.90;999.90;;;7.30;91.80;;;;;;5027122;28;20088;-77
2024/01/03 03:43:07;;;;;;;1999.90;999.90;;;7.30;91.70;;;;;;5024262;28;20033;-77
2024/01/03 03:45:32;;;;;;;1999.90;999.90;;;7.30;91.70;;;;;;5027088;28;20033;-80
2024/01/03 03:47:58;;;;;;;1999.90;999.90;;;7.30;91.70;;;;;;5023753;28;20527;-81
2024/01/03 03:50:24;;;;;;;1999.90;999.90;;;7.50;91.60;;;;;;5024731;28;20037;-78
2024/01/03 03:52:51;;;;;;;1999.90;999.90;;;7.60;91.20;;;;;;5026868;28;20065;-80
2024/01/03 03:55:17;;;;;;;1999.90;999.90;;;7.60;91.30;;;;;;5028035;28;20038;-80
2024/01/03 03:57:43;;;;;;;1999.90;999.90;;;7.60;91.30;;;;;;5025594;28;20664;-77
2024/01/03 04:00:13;;;;;;;1999.90;999.90;;;7.50;91.40;;;;;;5026433;28;20038;-80
2024/01/03 04:02:39;;;;;;;1999.90;999.90;;;7.50;91.60;;;;;;5024729;28;20486;-80
2024/01/03 04:05:05;;;;;;;1999.90;999.90;;;7.30;91.50;;;;;;5027964;28;20045;-79
2024/01/03 04:07:31;;;;;;;1999.90;999.90;;;7.20;92.00;;;;;;5021356;28;20068;-80
2024/01/03 04:09:57;;;;;;;1999.90;999.90;;;7.20;92.00;;;;;;5026527;28;20055;-81
2024/01/03 04:12:23;;;;;;;1999.90;999.90;;;7.30;92.20;;;;;;5021658;28;20584;-79
2024/01/03 04:14:49;;;;;;;1999.90;999.90;;;7.20;92.20;;;;;;5024684;28;20120;-79
2024/01/03 04:17:15;;;;;;;1999.90;999.90;;;7.30;92.00;;;;;;5025723;28;20116;-79
2024/01/03 04:19:41;;;;;;;1999.90;999.90;;;7.30;91.90;;;;;;5028754;28;20040;-78
2024/01/03 04:22:08;;;;;;;1999.90;999.90;;;7.40;91.70;;;;;;5027383;28;20041;-78
2024/01/03 04:24:34;;;;;;;1999.90;999.90;;;7.40;91.50;;;;;;5027217;28;20029;-79
2024/01/03 04:27:00;;;;;;;1999.90;999.90;;;7.40;91.40;;;;;;5024851;28;20394;-79
2024/01/03 04:29:25;;;;;;;1999.90;999.90;;;7.40;91.50;;;;;;5022854;28;20029;-80
2024/01/03 04:31:51;;;;;;;1999.90;999.90;;;7.40;91.40;;;;;;5023540;28;21679;-80
2024/01/03 04:34:17;;;;;;;1999.90;999.90;;;7.40;91.20;;;;;;5008405;28;20441;-80
2024/01/03 04:36:42;;;;;;;1999.90;999.90;;;7.40;91.30;;;;;;5013478;28;20052;-81
2024/01/03 04:39:08;;;;;;;1999.90;999.90;;;7.50;91.10;;;;;;5027790;28;20038;-79
2024/01/03 04:41:33;;;;;;;1999.90;999.90;;;7.50;90.80;;;;;;5025578;28;20029;-82
2024/01/03 04:44:00;;;;;;;1999.90;999.90;;;7.50;90.60;;;;;;5027388;28;20406;-81
2024/01/03 04:46:26;;;;;;;1999.90;999.90;;;7.60;90.00;;;;;;5025675;28;20515;-81
2024/01/03 04:48:52;;;;;;;1999.90;999.90;;;7.60;90.30;;;;;;5026508;28;20033;-81
2024/01/03 04:51:17;;;;;;;1999.90;999.90;;;7.40;91.30;;;;;;5026487;28;20380;-81
2024/01/03 04:53:43;;;;;;;1999.90;999.90;;;7.20;92.00;;;;;;5021717;28;20730;-80
2024/01/03 04:56:09;;;;;;;1999.90;999.90;;;7.10;92.50;;;;;;5026883;28;20045;-79
2024/01/03 04:58:34;;;;;;;1999.90;999.90;;;7.10;93.10;;;;;;5022399;28;20714;-79
2024/01/03 05:01:00;;;;;;;1999.90;999.90;;;7.10;93.60;;;;;;5027586;28;20056;-81
2024/01/03 05:03:26;;;;;;;1999.90;999.90;;;7.00;93.80;;;;;;5026111;28;20048;-79
2024/01/03 05:05:52;;;;;;;1999.90;999.90;;;7.00;94.10;;;;;;5028123;28;20081;-77
2024/01/03 05:08:18;;;;;;;1999.90;999.90;;;6.90;94.60;;;;;;5009713;28;21831;-79
2024/01/03 05:10:43;;;;;;;1999.90;999.90;;;7.00;94.70;;;;;;5027922;28;20044;-79
2024/01/03 05:13:12;;;;;;;1999.90;999.90;;;7.00;94.70;;;;;;5025531;28;20021;-80
2024/01/03 05:15:38;;;;;;;1999.90;999.90;;;7.00;94.50;;;;;;5007576;28;20707;-82
2024/01/03 05:18:04;;;;;;;1999.90;999.90;;;7.10;95.10;;;;;;5027349;28;20033;-80
2024/01/03 05:20:29;;;;;;;1999.90;999.90;;;7.00;95.40;;;;;;5020555;28;20054;-80
2024/01/03 05:22:55;;;;;;;1999.90;999.90;;;7.00;95.40;;;;;;5021851;28;20036;-77
2024/01/03 05:25:21;;;;;;;1999.90;999.90;;;7.00;95.60;;;;;;5013578;28;20389;-81
2024/01/03 05:27:46;;;;;;;1999.90;999.90;;;7.00;95.80;;;;;;5024103;28;20553;-79
2024/01/03 05:30:12;;;;;;;1999.90;999.90;;;6.90;96.00;;;;;;5028687;28;20046;-79
2024/01/03 05:32:38;;;;;;;1999.90;999.90;;;6.90;95.20;;;;;;5031570;28;20037;-80
2024/01/03 05:35:04;;;;;;;1999.90;999.90;;;6.80;95.20;;;;;;5027742;28;20502;-82
2024/01/03 05:37:29;;;;;;;1999.90;999.90;;;6.70;95.90;;;;;;5027600;28;20057;-79
2024/01/03 05:39:55;;;;;;;1999.90;999.90;;;6.60;95.90;;;;;;5011964;28;20499;-81
2024/01/03 05:42:23;;;;;;;1999.90;999.90;;;6.50;96.60;;;;;;5030043;28;20120;-82
2024/01/03 05:44:48;;;;;;;1999.90;999.90;;;6.50;96.90;;;;;;5028935;28;20099;-78
2024/01/03 05:47:14;;;;;;;1999.90;999.90;;;6.50;96.90;;;;;;5026000;28;20482;-78
2024/01/03 05:49:41;;;;;;;1999.90;999.90;;;6.50;96.90;;;;;;5029799;28;20029;-82
2024/01/03 05:52:07;;;;;;;1999.90;999.90;;;6.40;97.60;;;;;;5029449;28;20518;-78
2024/01/03 05:54:32;;;;;;;1999.90;999.90;;;6.40;97.80;;;;;;5029074;28;20025;-79
2024/01/03 05:57:00;;;;;;;1999.90;999.90;;;6.30;97.50;;;;;;5028488;28;20342;-81
2024/01/03 05:59:27;;;;;;;1999.90;999.90;;;6.40;97.60;;;;;;5026578;28;20788;-78
2024/01/03 06:01:53;;;;;;;1999.90;999.90;;;6.40;97.40;;;;;;5013561;28;20045;-78
2024/01/03 06:04:20;;;;;;;1999.90;999.90;;;6.50;97.70;;;;;;5031616;28;20037;-83
2024/01/03 06:06:55;;;;;;;1999.90;999.90;;;6.50;97.40;;;;;;5030647;28;20076;-78
2024/01/03 06:09:22;;;;;;;1999.90;999.90;;;6.50;97.70;;;;;;5028615;28;20060;-80
2024/01/03 06:11:49;;;;;;;1999.90;999.90;;;6.40;98.00;;;;;;5010733;28;20038;-80
2024/01/03 06:14:15;;;;;;;1999.90;999.90;;;6.40;98.00;;;;;;5025790;28;20041;-79
2024/01/03 06:16:40;;;;;;;1999.90;999.90;;;6.40;98.10;;;;;;5029675;28;20029;-82
2024/01/03 06:19:06;;;;;;;1999.90;999.90;;;6.50;97.90;;;;;;5030673;28;20030;-82
2024/01/03 06:21:35;;;;;;;1999.90;999.90;;;6.50;98.30;;;;;;5028611;28;20537;-81
2024/01/03 06:24:01;;;;;;;1999.90;999.90;;;6.50;98.30;;;;;;5029450;28;20041;-79
2024/01/03 06:26:30;;;;;;;1999.90;999.90;;;6.40;98.20;;;;;;5026980;28;20086;-82
2024/01/03 06:28:56;;;;;;;1999.90;999.90;;;6.50;98.40;;;;;;5027908;28;20029;-82
2024/01/03 06:31:22;;;;;;;1999.90;999.90;;;6.50;98.20;;;;;;5033191;28;20043;-80
2024/01/03 06:33:49;;;;;;;1999.90;999.90;;;6.40;98.00;;;;;;5026995;28;20244;-81
2024/01/03 06:36:14;;;;;;;1999.90;999.90;;;6.40;98.20;;;;;;5010523;28;20033;-81
2024/01/03 06:38:40;;;;;;;1999.90;999.90;;;6.60;97.90;;;;;;5027975;28;20075;-79
2024/01/03 06:41:07;;;;;;;1999.90;999.90;;;6.50;98.20;;;;;;5030087;28;20503;-82
2024/01/03 06:43:33;;;;;;;1999.90;999.90;;;6.50;98.30;;;;;;5025082;28;20044;-82
2024/01/03 06:46:00;;;;;;;1999.90;999.90;;;6.50;98.10;;;;;;5029037;28;20443;-78
2024/01/03 06:48:26;;;;;;;1999.90;999.90;;;6.50;97.80;;;;;;5025929;28;20037;-83
2024/01/03 06:50:52;;;;;;;1999.90;999.90;;;6.70;97.50;;;;;;5031385;28;20044;-83
2024/01/03 06:53:17;;;;;;;1999.90;999.90;;;6.80;97.00;;;;;;5027063;28;20510;-79
2024/01/03 06:55:43;;;;;;;1999.90;999.90;;;6.80;97.00;;;;;;5028619;28;20780;-80
2024/01/03 06:58:09;;;;;;;1999.90;999.90;;;6.90;96.60;;;;;;5028424;28;20065;-82
2024/01/03 07:00:34;;;;;;;1999.90;999.90;;;7.00;96.60;;;;;;5024415;28;20072;-81
2024/01/03 07:03:01;;;;;;;1999.90;999.90;;;6.80;96.20;;;;;;5028672;28;20044;-79
2024/01/03 07:05:26;;;;;;;1999.90;999.90;;;6.90;96.20;;;;;;5026238;28;20050;-78
2024/01/03 07:07:52;;;;;;;1999.90;999.90;;;6.90;96.00;;;;;;5029410;28;20030;-81
2024/01/03 07:10:18;;;;;;;1999.90;999.90;;;7.10;95.00;;;;;;5028443;28;20030;-83
2024/01/03 07:12:43;;;;;;;1999.90;999.90;;;7.10;95.10;;;;;;5025824;28;20029;-80
2024/01/03 07:15:10;;;;;;;1999.90;999.90;;;7.10;95.00;;;;;;5025497;28;20030;-81
2024/01/03 07:17:36;;;;;;;1999.90;999.90;;;7.10;94.60;;;;;;5028043;28;20035;-80
2024/01/03 07:20:01;;;;;;;1999.90;999.90;;;7.10;94.50;;;;;;5027549;28;20033;-80
2024/01/03 07:22:29;;;;;;;1999.90;999.90;;;7.20;94.10;;;;;;5026231;28;20125;-79
2024/01/03 07:24:55;;;;;;;1999.90;999.90;;;7.20;93.90;;;;;;5026495;28;20117;-79
2024/01/03 07:27:20;;;;;;;1999.90;999.90;;;7.10;93.20;;;;;;5026446;28;20052;-80
2024/01/03 07:29:46;;;;;;;1999.90;999.90;;;7.10;93.20;;;;;;5027365;28;20029;-83
2024/01/03 07:32:12;;;;;;;1999.90;999.90;;;7.10;93.10;;;;;;5024498;28;20026;-80
2024/01/03 07:34:38;;;;;;;1999.90;999.90;;;7.10;92.70;;;;;;5026220;28;20060;-82
2024/01/03 07:37:03;;;;;;;1999.90;999.90;;;7.00;92.80;;;;;;5027975;28;20253;-83
2024/01/03 07:39:29;;;;;;;1999.90;999.90;;;7.10;92.50;;;;;;5026839;28;20037;-83
2024/01/03 07:41:55;;;;;;;1999.90;999.90;;;7.00;92.10;;;;;;5023910;28;20041;-80
2024/01/03 07:44:20;;;;;;;1999.90;999.90;;;6.90;92.40;;;;;;5024736;28;20112;-82
2024/01/03 07:46:46;;;;;;;1999.90;999.90;;;7.00;91.90;;;;;;5026315;28;20054;-82
2024/01/03 07:49:13;;;;;;;1999.90;999.90;;;7.00;91.60;;;;;;5020304;28;20773;-83
2024/01/03 07:51:41;;;;;;;1999.90;999.90;;;7.10;91.30;;;;;;5023801;28;20025;-81
2024/01/03 07:54:09;;;;;;;1999.90;999.90;;;7.10;91.00;;;;;;5023521;28;20098;-81
2024/01/03 07:56:36;;;;;;;1999.90;999.90;;;7.10;90.90;;;;;;5022430;28;20030;-83
2024/01/03 07:59:02;;;;;;;1999.90;999.90;;;7.20;90.30;;;;;;5013693;28;20035;-84
2024/01/03 08:01:29;;;;;;;1999.90;999.90;;;7.20;90.40;;;;;;5021121;28;20124;-78
2024/01/03 08:03:55;;;;;;;1999.90;999.90;;;7.30;90.00;;;;;;5022457;28;20029;-78
2024/01/03 08:06:21;;;;;;;1999.90;999.90;;;7.30;90.00;;;;;;5027551;28;20045;-83
2024/01/03 08:08:47;;;;;;;1999.90;999.90;;;7.40;89.80;;;;;;5005527;28;20116;-81
2024/01/03 08:11:13;;;;;;;1999.90;999.90;;;7.50;88.90;;;;;;5026731;28;20054;-78
2024/01/03 08:13:38;;;;;;;1999.90;999.90;;;7.50;88.90;;;;;;5025910;28;20033;-78
2024/01/03 08:16:06;;;;;;;1999.90;999.90;;;7.50;88.70;;;;;;5026325;28;20130;-81
2024/01/03 08:18:32;;;;;;;1999.90;999.90;;;7.50;88.40;;;;;;5038135;28;20033;-79
2024/01/03 08:20:58;;;;;;;1999.90;999.90;;;7.60;88.30;;;;;;5026187;28;20061;-78
2024/01/03 08:23:23;;;;;;;1999.90;999.90;;;7.70;87.50;;;;;;5002766;28;20121;-84
2024/01/03 08:25:49;;;;;;;1999.90;999.90;;;7.70;86.90;;;;;;5022197;28;20068;-82
2024/01/03 08:28:15;;;;;;;1999.90;999.90;;;7.60;86.50;;;;;;5026205;28;20036;-83
2024/01/03 08:30:40;;;;;;;1999.90;999.90;;;7.60;87.00;;;;;;5028141;28;20025;-83
2024/01/03 08:33:06;;;;;;;1999.90;999.90;;;7.60;87.30;;;;;;5027662;28;20041;-83
2024/01/03 08:35:32;;;;;;;1999.90;999.90;;;7.70;85.90;;;;;;5054386;28;20609;-84
2024/01/03 08:37:57;;;;;;;1999.90;999.90;;;7.70;85.80;;;;;;5029625;28;20025;-83
2024/01/03 08:40:24;;;;;;;1999.90;999.90;;;7.80;85.80;;;;;;5029770;28;20037;-81
2024/01/03 08:42:50;;;;;;;1999.90;999.90;;;7.80;85.40;;;;;;5029157;28;20160;-81
2024/01/03 08:45:16;;;;;;;1999.90;999.90;;;7.80;85.50;;;;;;5028433;28;20703;-85
2024/01/03 08:47:41;;;;;;;1999.90;999.90;;;7.90;85.20;;;;;;5010691;28;20538;-80
2024/01/03 08:50:07;;;;;;;1999.90;999.90;;;8.00;85.40;;;;;;5030438;28;20086;-82
2024/01/03 08:52:33;;;;;;;1999.90;999.90;;;8.10;85.10;;;;;;5006963;28;20037;-81
2024/01/03 08:54:59;;;;;;;1999.90;999.90;;;8.20;84.70;;;;;;5009455;28;20037;-83
2024/01/03 08:57:25;;;;;;;1999.90;999.90;;;8.30;84.30;;;;;;5020672;28;20094;-79
2024/01/03 08:59:51;;;;;;;1999.90;999.90;;;8.50;83.70;;;;;;5022708;28;20497;-81
2024/01/03 09:02:17;;;;;;;1999.90;999.90;;;8.50;83.20;;;;;;5007028;28;20033;-80
2024/01/03 09:04:43;;;;;;;1999.90;999.90;;;8.60;83.00;;;;;;5019569;28;20060;-85
2024/01/03 09:07:12;;;;;;;1999.90;999.90;;;8.40;83.00;;;;;;5027952;28;20041;-82
2024/01/03 09:09:40;;;;;;;1999.90;999.90;;;8.40;82.90;;;;;;5021388;28;20033;-75
2024/01/03 09:12:05;;;;;;;1999.90;999.90;;;8.50;82.40;;;;;;5015258;28;20060;-78
2024/01/03 09:14:33;;;;;;;1999.90;999.90;;;8.50;82.10;;;;;;5016835;28;20108;-80
2024/01/03 09:16:58;;;;;;;1999.90;999.90;;;8.60;81.40;;;;;;5012982;28;20440;-77
2024/01/03 09:19:24;;;;;;;1999.90;999.90;;;8.60;81.00;;;;;;5041613;28;20037;-78
2024/01/03 09:21:50;;;;;;;1999.90;999.90;;;8.70;80.80;;;;;;5027710;28;20030;-81
2024/01/03 09:24:18;;;;;;;1999.90;999.90;;;8.70;80.90;;;;;;5027041;28;20034;-81
2024/01/03 09:26:44;;;;;;;1999.90;999.90;;;8.60;81.40;;;;;;5023323;28;20575;-73
2024/01/03 09:29:09;;;;;;;1999.90;999.90;;;8.60;80.30;;;;;;5028392;28;20037;-79
2024/01/03 09:31:43;;;;;;;1999.90;999.90;;;8.70;80.00;;;;;;5025985;28;20480;-78
2024/01/03 09:34:08;;;;;;;1999.90;999.90;;;8.70;79.90;;;;;;5028443;28;20026;-78
2024/01/03 09:36:34;;;;;;;1999.90;999.90;;;8.80;79.60;;;;;;5024232;28;20028;-78
2024/01/03 09:39:00;;;;;;;1999.90;999.90;;;8.80;79.10;;;;;;5025806;28;20674;-76
2024/01/03 09:41:26;;;;;;;1999.90;999.90;;;8.70;79.00;;;;;;5042811;28;20399;-80
2024/01/03 09:43:56;;;;;;;1999.90;999.90;;;8.70;79.40;;;;;;5027598;28;20021;-81
2024/01/03 09:46:22;;;;;;;1999.90;999.90;;;8.70;79.50;;;;;;5024606;28;20444;-81
2024/01/03 09:48:48;;;;;;;1999.90;999.90;;;8.80;79.60;;;;;;5023439;28;20187;-79
2024/01/03 09:51:15;;;;;;;1999.90;999.90;;;8.90;78.30;;;;;;5026830;28;20030;-79
2024/01/03 09:53:41;;;;;;;1999.90;999.90;;;8.90;78.30;;;;;;5012374;28;20028;-79
2024/01/03 09:56:10;;;;;;;1999.90;999.90;;;9.10;78.60;;;;;;5025322;28;20033;-81
2024/01/03 09:58:36;;;;;;;1999.90;999.90;;;9.20;77.60;;;;;;5022120;28;20043;-81
2024/01/03 10:01:02;;;;;;;1999.90;999.90;;;9.00;77.20;;;;;;5026867;28;20495;-72
2024/01/03 10:03:28;;;;;;;1999.90;999.90;;;8.90;77.40;;;;;;5027913;28;20037;-76
2024/01/03 10:06:10;;;;;;;1999.90;999.90;;;8.90;77.80;;;;;;5026854;28;20053;-76
2024/01/03 10:08:35;;;;;;;1999.90;999.90;;;9.00;76.80;;;;;;5031115;28;20079;-80
2024/01/03 10:11:01;;;;;;;1999.90;999.90;;;9.10;76.70;;;;;;5026762;28;20706;-80
2024/01/03 10:13:30;;;;;;;1999.90;999.90;;;9.20;76.10;;;;;;5029587;28;20033;-78
2024/01/03 10:16:04;;;;;;;1999.90;999.90;;;9.40;75.10;;;;;;5030635;28;20858;-78
2024/01/03 10:18:29;;;;;;;1999.90;999.90;;;9.90;73.90;;;;;;5030050;28;20025;-77
2024/01/03 10:21:02;;;;;;;1999.90;999.90;;;10.00;72.40;;;;;;5025035;28;20040;-76
2024/01/03 10:23:27;;;;;;;1999.90;999.90;;;9.80;72.70;;;;;;5028629;28;20053;-77
2024/01/03 10:25:57;;;;;;;1999.90;999.90;;;9.70;72.30;;;;;;5031898;28;20157;-78
2024/01/03 10:28:22;;;;;;;1999.90;999.90;;;9.60;71.90;;;;;;5030483;28;20499;-75
2024/01/03 10:30:55;;;;;;;1999.90;999.90;;;9.60;72.30;;;;;;5023540;28;20057;-77
2024/01/03 10:33:21;;;;;;;1999.90;999.90;;;9.60;73.00;;;;;;4995029;28;20388;-78
2024/01/03 10:35:47;;;;;;;1999.90;999.90;;;9.70;72.60;;;;;;5042183;28;20488;-88
2024/01/03 10:38:15;;;;;;;1999.90;999.90;;;9.90;71.00;;;;;;5010526;28;20041;-80
2024/01/03 10:40:41;;;;;;;1999.90;999.90;;;10.00;69.70;;;;;;5012186;28;20222;-82
2024/01/03 10:43:10;;;;;;;1999.90;999.90;;;10.20;69.80;;;;;;5023928;28;20407;-80
2024/01/03 10:45:36;;;;;;;1999.90;999.90;;;10.30;68.80;;;;;;5032438;28;20017;-77
2024/01/03 10:48:03;;;;;;;1999.90;999.90;;;10.50;68.00;;;;;;5028708;28;20389;-81
2024/01/03 10:50:29;;;;;;;1999.90;999.90;;;10.70;67.00;;;;;;5030410;28;20038;-79
2024/01/03 10:52:58;;;;;;;1999.90;999.90;;;10.80;66.60;;;;;;5026682;28;20021;-79
2024/01/03 10:55:35;;;;;;;1999.90;999.90;;;10.70;65.70;;;;;;5027225;28;20041;-78
2024/01/03 10:58:06;;;;;;;1999.90;999.90;;;10.70;65.90;;;;;;5026741;28;20038;-78
2024/01/03 11:00:55;;;;;;;1999.90;999.90;;;10.70;67.00;;;;;;5029642;28;20055;-79
2024/01/03 11:03:48;;;;;;;1999.90;999.90;;;10.40;66.10;;;;;;5031369;28;20034;-81
2024/01/03 11:06:23;;;;;;;1999.90;999.90;;;10.30;66.60;;;;;;5031988;28;20077;-81
2024/01/03 11:08:53;;;;;;;1999.90;999.90;;;10.30;67.50;;;;;;5026676;28;20101;-79
2024/01/03 11:11:28;;;;;;;1999.90;999.90;;;10.20;68.40;;;;;;5027255;28;20121;-82
2024/01/03 11:13:55;;;;;;;1999.90;999.90;;;10.10;68.10;;;;;;5026992;28;20025;-77
2024/01/03 11:16:39;;;;;;;1999.90;999.90;;;10.00;68.30;;;;;;5028478;28;20044;-80
2024/01/03 11:19:07;;;;;;;1999.90;999.90;;;10.10;68.00;;;;;;5026083;28;20472;-78
2024/01/03 11:21:35;;;;;;;1999.90;999.90;;;10.00;68.70;;;;;;5028026;28;20032;-83
2024/01/03 11:24:02;;;;;;;1999.90;999.90;;;10.00;68.40;;;;;;5023088;28;20136;-81
2024/01/03 11:26:53;;;;;;;1999.90;999.90;;;10.00;68.60;;;;;;5021512;28;20040;-79
2024/01/03 11:29:45;;;;;;;;;;;10.00;68.60;;;;;;5026428;28;20491;-80
2024/01/03 11:32:34;;;;;;;1999.90;999.90;;;10.00;68.10;;;;;;5024334;28;20400;-82
2024/01/03 11:35:01;;;;;;;1999.90;999.90;;;9.90;69.20;;;;;;5027424;28;20084;-83
2024/01/03 11:37:29;;;;;;;1999.90;999.90;;;9.70;69.30;;;;;;5026871;28;20100;-83
2024/01/03 11:39:56;;;;;;;1999.90;999.90;;;9.70;69.60;;;;;;5019861;28;20021;-84
2024/01/03 11:42:42;;;;;;;1999.90;999.90;;;9.80;69.10;;;;;;5026609;28;20029;-82
2024/01/03 11:45:17;;;;;;;1999.90;999.90;;;9.70;68.70;;;;;;5022320;28;20098;-84
2024/01/03 11:47:44;;;;;;;1999.90;999.90;;;9.90;68.30;;;;;;5004782;28;20033;-82
2024/01/03 11:50:12;;;;;;;1999.90;999.90;;;10.10;67.80;;;;;;5027587;28;20083;-81
2024/01/03 11:52:44;;;;;;;1999.90;999.90;;;10.30;67.20;;;;;;5025373;28;20496;-79
2024/01/03 11:55:11;;;;;;;1999.90;999.90;;;10.30;67.50;;;;;;5026107;28;20049;-81
2024/01/03 11:57:47;;;;;;;1999.90;999.90;;;10.40;67.30;;;;;;5028341;28;20062;-78
2024/01/03 12:00:19;;;;;;;1999.90;999.90;;;10.60;66.90;;;;;;5024745;28;20115;-81
2024/01/03 12:02:53;;;;;;;1999.90;999.90;;;10.60;65.90;;;;;;5024674;28;20388;-80
2024/01/03 12:05:23;;;;;;;1999.90;999.90;;;10.60;65.50;;;;;;5024650;28;20392;-77
2024/01/03 12:07:50;;;;;;;1999.90;999.90;;;10.50;65.50;;;;;;5025904;28;20036;-79
2024/01/03 12:10:17;;;;;;;1999.90;999.90;;;10.50;65.80;;;;;;5030864;28;20045;-78